Time;durP1;ratioP1;P1;durP2;ratioP2;P2;SDS_P1;SDS_P2;PMS_P1;PMS_P2;Temp;Humidity;BMP_temperature;BMP_pressure;BME280_temperature;BME280_humidity;BME280_pressure;Samples;Min_cycle;Max_cycle;Signal;HPM_P1;HPM_P2
2022/05/22 00:02:59;;;;;;;87.10;71.88;;;15.60;94.40;;;;;;10478196;28;20045;-86
2022/05/22 00:08:01;;;;;;;86.90;71.85;;;14.50;96.30;;;;;;10463325;28;20090;-88
2022/05/22 00:13:05;;;;;;;85.63;71.97;;;14.70;96.50;;;;;;10463289;28;20638;-88
2022/05/22 00:18:08;;;;;;;83.78;71.03;;;14.90;96.50;;;;;;10463925;28;20557;-88
2022/05/22 00:23:10;;;;;;;88.57;72.50;;;15.20;96.10;;;;;;10476757;28;20040;-87
2022/05/22 00:28:13;;;;;;;85.18;71.18;;;15.10;96.50;;;;;;10462020;28;20059;-88
2022/05/22 00:33:15;;;;;;;86.20;70.32;;;14.80;96.40;;;;;;10462696;28;20056;-88
2022/05/22 00:38:17;;;;;;;85.35;70.80;;;15.00;96.80;;;;;;10462921;28;20041;-87
2022/05/22 00:43:28;;;;;;;88.28;70.60;;;15.00;96.70;;;;;;10461857;28;20053;-88
2022/05/22 00:48:31;;;;;;;84.70;70.40;;;14.80;96.70;;;;;;10474009;28;20052;-88
2022/05/22 00:53:37;;;;;;;85.13;70.35;;;15.00;96.80;;;;;;10462865;28;20460;-88
2022/05/22 00:58:41;;;;;;;86.38;72.43;;;14.80;96.50;;;;;;10461760;28;20053;-87
2022/05/22 01:03:44;;;;;;;83.28;69.30;;;14.90;96.60;;;;;;10461432;28;20053;-86
2022/05/22 01:08:47;;;;;;;87.20;70.70;;;14.80;96.50;;;;;;10460951;28;20155;-86
2022/05/22 01:13:55;;;;;;;84.28;70.22;;;14.70;96.40;;;;;;10459278;28;20044;-86
2022/05/22 01:18:58;;;;;;;90.20;71.82;;;14.50;96.30;;;;;;10460525;28;20049;-87
2022/05/22 01:24:04;;;;;;;90.28;71.93;;;14.00;96.90;;;;;;10460587;28;20049;-87
2022/05/22 01:29:06;;;;;;;88.47;71.07;;;13.80;98.00;;;;;;10461153;28;20049;-89
2022/05/22 01:34:08;;;;;;;92.18;72.80;;;14.00;97.60;;;;;;10457301;28;20048;-88
2022/05/22 01:39:12;;;;;;;89.28;71.13;;;14.10;97.60;;;;;;10460488;28;20073;-89
2022/05/22 01:44:14;;;;;;;91.38;72.15;;;14.20;96.90;;;;;;10445534;28;20130;-87
2022/05/22 01:49:16;;;;;;;88.75;70.85;;;14.00;97.50;;;;;;10458712;28;20864;-88
2022/05/22 01:54:19;;;;;;;91.22;71.10;;;13.60;97.90;;;;;;10474642;28;20169;-88
2022/05/22 01:59:22;;;;;;;87.85;70.13;;;13.60;98.00;;;;;;10459237;28;20056;-86
2022/05/22 02:04:24;;;;;;;91.18;70.15;;;13.60;98.20;;;;;;10456126;28;20048;-82
2022/05/22 02:09:28;;;;;;;87.80;70.35;;;13.80;98.10;;;;;;10455960;28;20486;-83
2022/05/22 02:14:30;;;;;;;88.50;70.40;;;13.80;98.10;;;;;;10449183;28;20059;-84
2022/05/22 02:19:32;;;;;;;89.72;71.10;;;13.80;98.40;;;;;;10454651;28;20052;-81
2022/05/22 02:24:35;;;;;;;86.70;69.88;;;13.60;97.60;;;;;;10439848;28;20053;-87
2022/05/22 02:29:37;;;;;;;87.65;70.07;;;13.50;98.30;;;;;;10458679;28;20052;-89
2022/05/22 02:34:40;;;;;;;88.78;71.22;;;13.60;98.10;;;;;;10455292;28;20049;-90
2022/05/22 02:39:43;;;;;;;85.25;69.65;;;13.80;98.00;;;;;;10448940;28;20094;-88
2022/05/22 02:44:45;;;;;;;88.80;70.38;;;13.80;98.30;;;;;;10455857;28;20048;-83
2022/05/22 02:49:47;;;;;;;85.03;69.85;;;13.80;98.40;;;;;;10453856;28;20060;-82
2022/05/22 02:54:50;;;;;;;102.20;80.57;;;13.80;98.10;;;;;;10456405;28;20078;-81
2022/05/22 02:59:54;;;;;;;86.57;70.50;;;13.80;98.20;;;;;;10456187;28;20376;-83
2022/05/22 03:04:56;;;;;;;86.30;70.05;;;13.70;97.90;;;;;;10456667;28;20049;-81
2022/05/22 03:09:59;;;;;;;85.22;69.97;;;13.60;98.10;;;;;;10456044;28;20049;-81
2022/05/22 03:15:01;;;;;;;84.70;69.35;;;13.50;98.10;;;;;;10456009;28;20045;-82
2022/05/22 03:20:05;;;;;;;87.28;69.05;;;13.50;98.00;;;;;;10455768;28;20499;-84
2022/05/22 03:25:10;;;;;;;84.68;69.03;;;13.40;98.30;;;;;;10455386;28;20060;-82
2022/05/22 03:30:12;;;;;;;84.60;69.78;;;13.30;98.50;;;;;;10456534;28;20099;-81
2022/05/22 03:35:14;;;;;;;83.65;68.72;;;13.40;98.60;;;;;;10460942;28;20537;-82
2022/05/22 03:40:18;;;;;;;86.15;69.88;;;13.00;99.00;;;;;;10463305;28;20057;-81
2022/05/22 03:45:20;;;;;;;88.53;70.10;;;13.00;99.20;;;;;;10462998;28;20045;-80
2022/05/22 03:50:24;;;;;;;85.38;69.22;;;12.90;99.30;;;;;;10462416;28;20490;-82
2022/05/22 03:55:27;;;;;;;88.32;69.97;;;12.90;99.10;;;;;;10462180;28;20091;-82
2022/05/22 04:00:29;;;;;;;86.07;69.30;;;12.90;99.20;;;;;;10459894;28;20098;-81
2022/05/22 04:05:31;;;;;;;84.32;68.80;;;13.10;98.90;;;;;;10462235;28;20052;-82
2022/05/22 04:10:36;;;;;;;86.18;68.80;;;13.10;98.90;;;;;;10461340;28;20045;-81
2022/05/22 04:15:37;;;;;;;84.70;69.07;;;13.30;99.10;;;;;;10461951;28;20045;-81
2022/05/22 04:20:40;;;;;;;83.60;69.15;;;13.30;98.40;;;;;;10461418;28;20049;-81
2022/05/22 04:25:53;;;;;;;84.38;69.78;;;13.30;98.70;;;;;;10461331;28;20048;-85
2022/05/22 04:30:55;;;;;;;82.85;68.43;;;13.10;99.50;;;;;;10460634;28;20057;-83
2022/05/22 04:35:57;;;;;;;83.13;68.85;;;13.10;99.30;;;;;;10461243;28;20047;-82
2022/05/22 04:41:03;;;;;;;83.47;68.75;;;13.10;99.20;;;;;;10456721;28;20071;-82
2022/05/22 04:46:07;;;;;;;84.18;69.50;;;13.20;99.20;;;;;;10455008;28;20060;-86
2022/05/22 04:51:09;;;;;;;86.35;70.45;;;13.20;99.30;;;;;;10459950;28;20064;-85
2022/05/22 04:56:13;;;;;;;87.10;72.30;;;13.20;99.60;;;;;;10458235;28;20049;-86
2022/05/22 05:01:16;;;;;;;82.47;68.57;;;13.20;99.90;;;;;;10462704;28;20076;-85
2022/05/22 05:06:17;;;;;;;83.30;69.10;;;13.30;99.90;;;;;;10461405;28;20410;-86
2022/05/22 05:11:21;;;;;;;85.95;71.15;;;13.50;99.80;;;;;;10439516;28;20049;-87
2022/05/22 05:16:23;;;;;;;81.78;68.85;;;13.70;99.80;;;;;;10467049;28;20528;-85
2022/05/22 05:21:26;;;;;;;82.18;69.10;;;13.80;99.50;;;;;;10433211;28;20040;-82
2022/05/22 05:26:29;;;;;;;82.75;69.43;;;13.90;99.30;;;;;;10459454;28;20044;-86
2022/05/22 05:31:31;;;;;;;83.82;70.10;;;13.70;99.70;;;;;;10459497;28;20045;-87
2022/05/22 05:36:33;;;;;;;82.55;69.65;;;13.70;99.90;;;;;;10447905;28;20044;-84
2022/05/22 05:41:37;;;;;;;84.32;71.43;;;13.80;99.90;;;;;;10456357;28;20072;-85
2022/05/22 05:46:39;;;;;;;82.15;69.60;;;13.90;99.90;;;;;;10452170;28;20053;-86
2022/05/22 05:51:41;;;;;;;84.38;70.32;;;13.90;99.90;;;;;;10452778;28;20045;-86
2022/05/22 05:56:45;;;;;;;82.55;70.05;;;14.00;99.90;;;;;;10443230;28;20510;-86
2022/05/22 06:01:47;;;;;;;84.28;70.68;;;14.10;99.90;;;;;;10457293;28;20494;-84
2022/05/22 06:06:49;;;;;;;84.00;69.60;;;14.20;99.90;;;;;;10458091;28;20045;-87
2022/05/22 06:20:57;;;;;;;99.63;81.13;;;23.80;81.00;;;;;;2082097;27;20902;-69
2022/05/22 06:21:58;;;;;;;113.47;95.60;;;23.90;77.10;;;;;;2106277;28;20074;-71
2022/05/22 06:23:00;;;;;;;121.70;103.95;;;23.90;78.60;;;;;;2093512;28;20099;-70
2022/05/22 06:24:01;;;;;;;148.82;129.02;;;24.00;77.80;;;;;;2096351;28;20383;-71
2022/05/22 06:25:05;;;;;;;108.93;95.07;;;24.00;77.30;;;;;;2097170;28;20079;-71
2022/05/22 06:26:06;;;;;;;115.93;103.25;;;24.00;77.50;;;;;;2097394;28;20048;-70
2022/05/22 06:27:08;;;;;;;109.50;97.82;;;24.10;75.80;;;;;;2097357;28;20123;-72
2022/05/22 06:28:09;;;;;;;111.80;99.53;;;24.10;75.70;;;;;;2097247;28;20083;-72
2022/05/22 06:29:11;;;;;;;107.07;95.65;;;24.10;75.60;;;;;;2094531;28;20060;-71
2022/05/22 06:30:13;;;;;;;108.35;96.53;;;24.20;74.60;;;;;;2039122;28;123100;-71
2022/05/22 06:31:50;;;;;;;104.30;92.82;;;24.20;74.60;;;;;;2114132;27;20711;-71
2022/05/22 06:32:52;;;;;;;110.63;98.53;;;24.20;74.10;;;;;;2105654;28;20490;-71
2022/05/22 06:33:54;;;;;;;118.15;105.25;;;24.20;74.20;;;;;;2105390;28;20044;-72
2022/05/22 06:34:58;;;;;;;123.57;110.07;;;24.30;74.50;;;;;;2102740;28;20055;-72
2022/05/22 06:35:59;;;;;;;144.52;129.25;;;24.30;74.70;;;;;;2054896;28;20048;-72
2022/05/22 06:37:03;;;;;;;111.07;99.25;;;24.30;74.00;;;;;;2090304;28;20051;-71
2022/05/22 06:38:05;;;;;;;110.22;98.43;;;24.30;73.80;;;;;;2086712;28;20453;-71
2022/05/22 06:40:26;;;;;;;142.55;125.80;;;24.30;74.40;;;;;;2089044;28;20494;-71
2022/05/22 06:41:28;;;;;;;155.82;139.40;;;24.40;75.00;;;;;;2089053;28;20056;-72
2022/05/22 06:42:31;;;;;;;178.13;159.13;;;24.40;75.60;;;;;;2087663;28;20041;-70
2022/05/22 06:43:33;;;;;;;178.55;144.10;;;24.40;75.00;;;;;;2088966;28;20445;-71
2022/05/22 06:44:34;;;;;;;201.95;150.27;;;24.40;74.40;;;;;;2088843;28;20045;-68
2022/05/22 06:45:36;;;;;;;213.32;153.38;;;24.40;75.00;;;;;;2088959;28;20041;-69
2022/05/22 06:46:37;;;;;;;203.23;131.15;;;24.40;75.20;;;;;;2088860;28;20049;-70
2022/05/22 06:47:42;;;;;;;186.57;166.32;;;24.40;75.00;;;;;;2089421;28;20098;-71
2022/05/22 06:48:43;;;;;;;192.23;171.35;;;24.40;75.50;;;;;;2080536;28;20092;-69
2022/05/22 06:49:45;;;;;;;176.07;156.68;;;24.40;75.30;;;;;;2086169;28;20041;-70
2022/05/22 06:50:46;;;;;;;181.40;159.98;;;24.40;74.90;;;;;;2065598;28;20061;-69
2022/05/22 06:51:48;;;;;;;167.10;147.10;;;24.40;73.50;;;;;;2089132;28;20072;-67
2022/05/22 06:59:10;;;;;;;11.77;1.80;;;24.60;70.30;;;;;;2061235;27;20351;-59
2022/05/22 07:00:16;;;;;;;9.50;1.77;;;24.70;69.40;;;;;;2103208;28;20608;-60
2022/05/22 07:01:17;;;;;;;8.45;1.80;;;24.60;69.10;;;;;;2092252;28;20064;-60
2022/05/22 07:02:19;;;;;;;9.63;1.88;;;24.60;69.60;;;;;;2097429;28;20078;-60
2022/05/22 07:03:20;;;;;;;7.00;1.60;;;24.60;69.50;;;;;;2048473;28;20582;-59
2022/05/22 07:04:22;;;;;;;7.78;1.50;;;24.60;69.00;;;;;;2113504;28;20097;-58
2022/05/22 07:05:26;;;;;;;9.55;1.60;;;24.60;68.90;;;;;;2102253;28;20102;-60
2022/05/22 07:06:27;;;;;;;5.47;1.60;;;24.60;69.20;;;;;;2089090;28;20103;-59
2022/05/22 09:13:27;;;;;;;5.40;2.00;;;25.80;71.30;;;;;;2044094;27;20362;-57
2022/05/22 09:14:37;;;;;;;5.93;2.17;;;25.80;66.40;;;;;;2085990;28;20436;-71
2022/05/22 09:15:47;;;;;;;7.35;2.10;;;25.90;66.90;;;;;;2078001;28;20038;-61
2022/05/22 09:21:03;;;;;;;4.88;1.40;;;23.90;63.10;;;;;;2109108;27;20358;-76
2022/05/22 09:22:21;;;;;;;5.55;1.65;;;23.30;62.70;;;;;;2047663;28;95257;-73
2022/05/22 09:26:05;;;;;;;4.35;1.30;;;22.80;62.70;;;;;;6967878;27;20912;-76
2022/05/22 09:29:46;;;;;;;3.60;1.10;;;21.70;63.40;;;;;;6990402;28;20520;-75
2022/05/22 09:33:21;;;;;;;5.25;1.40;;;21.40;67.40;;;;;;6992166;28;20048;-76
2022/05/22 09:36:57;;;;;;;5.53;1.33;;;21.10;69.20;;;;;;6980048;28;20051;-80
2022/05/22 09:40:32;;;;;;;2.97;0.98;;;21.00;67.90;;;;;;6991780;28;20056;-80
2022/05/22 09:44:18;;;;;;;3.72;1.27;;;20.80;66.20;;;;;;6989878;28;20097;-77
2022/05/22 09:48:04;;;;;;;3.55;1.20;;;20.80;68.80;;;;;;6988699;28;20049;-74
2022/05/22 09:51:34;;;;;;;3.50;1.10;;;21.00;68.60;;;;;;6983903;28;20427;-76
2022/05/22 09:55:21;;;;;;;13.63;6.45;;;21.00;67.00;;;;;;6966089;28;20061;-75
2022/05/22 09:59:06;;;;;;;3.70;1.45;;;20.90;65.90;;;;;;6979353;28;20072;-74
2022/05/22 10:02:40;;;;;;;8.70;2.58;;;20.90;66.30;;;;;;6984264;28;20056;-75
2022/05/22 10:06:12;;;;;;;5.53;1.83;;;21.00;68.00;;;;;;6981890;28;20126;-76
2022/05/22 10:09:47;;;;;;;6.13;2.10;;;21.00;67.20;;;;;;6989499;28;20052;-72
2022/05/22 10:13:20;;;;;;;5.43;1.58;;;21.20;68.40;;;;;;6988302;28;20056;-76
2022/05/22 10:17:03;;;;;;;6.30;1.42;;;21.30;68.40;;;;;;6983259;28;20769;-75
2022/05/22 10:20:38;;;;;;;4.13;1.00;;;21.40;67.20;;;;;;6983258;28;20051;-73
2022/05/22 10:24:16;;;;;;;4.65;1.20;;;21.50;65.60;;;;;;6961431;28;20564;-74
2022/05/22 10:27:58;;;;;;;5.68;1.30;;;21.50;65.70;;;;;;6950653;28;20476;-76
2022/05/22 10:31:22;;;;;;;;;;;21.60;64.40;;;;;;6964044;28;20052;-73
2022/05/22 10:34:54;;;;;;;2.85;1.00;;;21.80;63.20;;;;;;6947512;28;19975;-75
2022/05/22 10:38:19;;;;;;;;;;;21.90;62.20;;;;;;6946071;28;20041;-77
2022/05/22 10:45:35;;;;;;;2.28;0.80;;;22.10;62.30;;;;;;6913542;28;20049;-76
2022/05/22 10:48:57;;;;;;;2.60;0.90;;;22.10;60.00;;;;;;6932155;28;20053;-77
2022/05/22 10:52:30;;;;;;;3.05;1.00;;;22.10;61.80;;;;;;6940103;28;20069;-74
2022/05/22 10:56:01;;;;;;;4.65;1.00;;;22.10;61.90;;;;;;6939409;28;20049;-75
2022/05/22 10:59:23;;;;;;;3.10;1.00;;;22.20;62.10;;;;;;6937481;28;20116;-76
2022/05/22 11:02:45;;;;;;;;;;;22.30;60.90;;;;;;6940918;28;20057;-77
2022/05/22 11:06:22;;;;;;;2.38;1.02;;;22.30;61.20;;;;;;6940521;28;19952;-78
2022/05/22 11:09:52;;;;;;;2.92;0.88;;;22.30;62.40;;;;;;6939325;28;20042;-78
2022/05/22 11:13:25;;;;;;;3.45;1.10;;;22.40;58.80;;;;;;6939983;28;20049;-78
2022/05/22 11:16:47;;;;;;;3.70;1.05;;;22.30;59.40;;;;;;6940003;28;20057;-78
2022/05/22 11:20:16;;;;;;;3.75;0.90;;;22.30;59.90;;;;;;6940292;28;20050;-78
2022/05/22 11:24:00;;;;;;;2.08;0.65;;;22.40;55.80;;;;;;6926837;28;20512;-80
2022/05/22 11:27:38;;;;;;;2.33;0.80;;;22.30;54.20;;;;;;6938661;28;20048;-80
2022/05/22 11:31:17;;;;;;;2.63;0.80;;;22.40;52.70;;;;;;6927898;28;20049;-81
2022/05/22 11:35:05;;;;;;;2.80;0.80;;;22.40;53.70;;;;;;6941388;28;20046;-79
2022/05/22 11:38:48;;;;;;;3.28;1.33;;;22.60;53.30;;;;;;6943531;28;20050;-80
2022/05/22 11:42:19;;;;;;;2.53;1.00;;;22.80;53.10;;;;;;6945188;28;20100;-79
2022/05/22 11:45:53;;;;;;;3.40;1.10;;;22.90;53.80;;;;;;6944016;28;20051;-80
2022/05/22 11:49:32;;;;;;;3.28;0.95;;;23.10;51.40;;;;;;6942596;28;20050;-79
2022/05/22 11:53:13;;;;;;;3.42;0.88;;;23.00;48.40;;;;;;6942158;28;20613;-80
2022/05/22 11:56:58;;;;;;;1.98;0.70;;;23.10;46.50;;;;;;6943669;28;20077;-80
2022/05/22 12:00:30;;;;;;;1.50;0.70;;;23.10;47.40;;;;;;6941598;28;20056;-79
2022/05/22 12:04:17;;;;;;;3.70;1.13;;;23.10;46.20;;;;;;6943397;28;20052;-80
2022/05/22 12:07:58;;;;;;;4.28;0.80;;;23.40;49.80;;;;;;6934896;28;20046;-78
2022/05/22 12:11:29;;;;;;;1.88;0.70;;;23.50;47.30;;;;;;6941188;28;20406;-79
2022/05/22 12:15:04;;;;;;;6.10;2.58;;;23.70;46.00;;;;;;6940467;28;20053;-79
2022/05/22 12:18:45;;;;;;;1.67;0.75;;;23.90;46.70;;;;;;6940170;28;20507;-79
2022/05/22 12:22:17;;;;;;;1.67;0.70;;;24.10;45.10;;;;;;6941972;28;20052;-81
2022/05/22 12:25:48;;;;;;;3.53;0.75;;;24.10;42.20;;;;;;6943221;28;20053;-81
2022/05/22 12:29:14;;;;;;;4.35;0.90;;;24.20;44.00;;;;;;6943122;28;20053;-79
2022/05/22 12:32:45;;;;;;;7.75;0.80;;;24.60;43.30;;;;;;6941280;28;20116;-80
2022/05/22 12:36:09;;;;;;;3.28;1.20;;;24.70;44.30;;;;;;6943180;28;20060;-81
2022/05/22 12:39:44;;;;;;;2.25;0.70;;;24.80;45.80;;;;;;6939386;28;20053;-78
2022/05/22 12:43:10;;;;;;;2.08;0.65;;;25.00;43.10;;;;;;6941545;28;20049;-79
2022/05/22 12:46:33;;;;;;;2.95;0.73;;;25.10;43.40;;;;;;6941949;28;20045;-78
2022/05/22 12:49:58;;;;;;;2.13;0.80;;;25.30;43.00;;;;;;6939981;28;20045;-80
2022/05/22 12:53:28;;;;;;;2.25;0.88;;;25.50;44.10;;;;;;6941632;28;20550;-78
2022/05/22 12:56:53;;;;;;;3.40;1.00;;;25.50;46.90;;;;;;6956575;28;20172;-80
2022/05/22 13:00:31;;;;;;;3.45;1.00;;;25.60;47.80;;;;;;6935990;28;20172;-81
2022/05/22 13:03:57;;;;;;;2.65;0.93;;;25.90;48.60;;;;;;6941234;28;20132;-78
2022/05/22 13:07:27;;;;;;;2.97;1.00;;;26.00;46.70;;;;;;6940927;28;20069;-79
2022/05/22 13:10:54;;;;;;;2.90;0.80;;;26.40;48.70;;;;;;6942042;28;20048;-82
2022/05/22 13:14:29;;;;;;;2.92;0.90;;;26.70;45.30;;;;;;6942204;28;20049;-83
2022/05/22 13:18:07;;;;;;;5.40;1.20;;;26.60;45.50;;;;;;6942110;28;20053;-78
2022/05/22 13:21:39;;;;;;;2.97;1.02;;;26.90;45.90;;;;;;6941684;28;20049;-80
2022/05/22 13:25:04;;;;;;;4.05;1.00;;;27.10;46.30;;;;;;6941362;28;20061;-80
2022/05/22 13:28:30;;;;;;;3.10;0.80;;;27.00;46.20;;;;;;6941265;28;20488;-78
2022/05/22 13:31:58;;;;;;;2.60;1.00;;;27.10;45.60;;;;;;6942321;28;20403;-78
2022/05/22 13:35:23;;;;;;;3.50;1.05;;;27.30;45.40;;;;;;6940520;28;20479;-78
2022/05/22 13:38:45;;;;;;;2.35;0.85;;;27.60;44.50;;;;;;6943270;28;20049;-79
2022/05/22 13:43:07;;;;;;;2.58;1.00;;;27.70;44.60;;;;;;6936756;28;20053;-79
2022/05/22 13:47:18;;;;;;;3.55;0.80;;;28.20;45.20;;;;;;6934439;28;20060;-81
2022/05/22 13:54:49;;;;;;;2.88;0.95;;;28.30;41.30;;;;;;6941111;28;20045;-81
2022/05/22 13:58:19;;;;;;;3.88;1.00;;;27.80;43.20;;;;;;6934200;28;20103;-80
2022/05/22 14:01:43;;;;;;;3.40;0.82;;;27.20;42.30;;;;;;6930626;28;20045;-76
2022/05/22 14:05:10;;;;;;;2.58;0.90;;;27.40;42.50;;;;;;6935506;28;20041;-77
2022/05/22 14:08:35;;;;;;;3.28;0.90;;;27.50;41.50;;;;;;6939255;28;20041;-77
2022/05/22 14:11:57;;;;;;;2.38;0.80;;;27.30;41.80;;;;;;6916534;28;20248;-78
2022/05/22 14:15:24;;;;;;;2.63;1.00;;;27.30;42.40;;;;;;6944095;28;20084;-79
2022/05/22 14:18:47;;;;;;;3.25;0.90;;;27.00;44.40;;;;;;6944672;28;20430;-80
2022/05/22 14:22:15;;;;;;;3.53;0.95;;;27.20;44.30;;;;;;6946778;28;20434;-78
2022/05/22 14:25:39;;;;;;;2.50;0.88;;;27.30;41.40;;;;;;6943495;28;20102;-78
2022/05/22 14:29:02;;;;;;;2.60;0.88;;;27.30;41.10;;;;;;6944505;28;20042;-77
2022/05/22 14:32:24;;;;;;;2.60;0.95;;;27.10;42.10;;;;;;6942018;28;20113;-79
2022/05/22 14:35:50;;;;;;;2.72;0.98;;;26.90;43.00;;;;;;6941292;28;20049;-79
2022/05/22 14:39:17;;;;;;;3.88;0.90;;;26.70;45.10;;;;;;6944678;28;20053;-77
2022/05/22 14:42:39;;;;;;;3.85;0.85;;;26.30;43.50;;;;;;6945461;28;20052;-79
2022/05/22 14:46:02;;;;;;;2.75;1.00;;;26.00;45.40;;;;;;6943690;28;21762;-76
2022/05/22 14:49:29;;;;;;;5.78;2.17;;;25.90;45.00;;;;;;6945989;28;20046;-78
2022/05/22 14:52:58;;;;;;;4.80;1.65;;;25.80;45.70;;;;;;6944495;28;20045;-78
2022/05/22 14:56:24;;;;;;;10.50;4.88;;;25.80;45.80;;;;;;6944648;28;20053;-77
2022/05/22 14:59:52;;;;;;;3.17;1.08;;;26.00;45.30;;;;;;6941734;28;20049;-79
2022/05/22 15:03:22;;;;;;;2.15;0.80;;;25.90;45.70;;;;;;6944183;28;20049;-77
2022/05/22 15:06:47;;;;;;;3.53;1.00;;;26.10;44.50;;;;;;6941635;28;20056;-81
2022/05/22 15:10:24;;;;;;;2.35;1.00;;;26.10;45.50;;;;;;6936432;28;20038;-78
2022/05/22 15:13:58;;;;;;;2.80;1.00;;;26.00;45.90;;;;;;6949855;28;20049;-78
2022/05/22 15:17:29;;;;;;;3.58;1.10;;;25.60;47.60;;;;;;6943905;28;20049;-77
2022/05/22 15:21:00;;;;;;;2.73;1.00;;;25.70;49.00;;;;;;6942897;28;20053;-78
2022/05/22 15:28:11;;;;;;;3.40;1.13;;;25.60;47.80;;;;;;6941970;28;20061;-74
2022/05/22 15:31:35;;;;;;;4.05;1.20;;;25.60;49.10;;;;;;6945650;28;20550;-75
2022/05/22 15:35:00;;;;;;;2.22;0.90;;;25.60;50.20;;;;;;6944763;28;20060;-79
2022/05/22 15:38:26;;;;;;;3.20;0.90;;;25.40;51.40;;;;;;6943712;28;20439;-78
2022/05/22 15:42:16;;;;;;;5.85;2.25;;;25.40;50.70;;;;;;6943496;28;20056;-78
2022/05/22 15:45:38;;;;;;;4.47;1.83;;;25.20;51.50;;;;;;6940744;28;20160;-78
2022/05/22 15:52:41;;;;;;;4.00;1.37;;;25.00;53.50;;;;;;6943517;28;20054;-78
2022/05/22 15:56:03;;;;;;;4.70;1.15;;;24.80;54.50;;;;;;6941289;28;20049;-79
2022/05/22 15:59:25;;;;;;;;;;;24.90;54.80;;;;;;6942501;28;20050;-80
2022/05/22 16:02:51;;;;;;;4.35;1.77;;;24.60;52.50;;;;;;6942783;28;19921;-82
2022/05/22 16:06:14;;;;;;;3.83;1.30;;;24.60;52.40;;;;;;6938678;28;20092;-80
2022/05/22 16:09:37;;;;;;;3.70;1.30;;;24.40;52.00;;;;;;6943327;28;20042;-79
2022/05/22 16:12:59;;;;;;;2.60;1.17;;;24.40;52.90;;;;;;6944131;28;20393;-72
2022/05/22 16:16:24;;;;;;;3.65;1.20;;;24.30;52.60;;;;;;6943267;28;20049;-78
2022/05/22 16:19:50;;;;;;;2.83;1.10;;;24.30;54.60;;;;;;6942586;28;20050;-75
2022/05/22 16:23:14;;;;;;;3.55;1.13;;;24.20;55.70;;;;;;6942220;28;20064;-76
2022/05/22 16:26:36;;;;;;;2.92;1.30;;;24.20;55.40;;;;;;6943279;28;20502;-76
2022/05/22 16:29:58;;;;;;;5.55;1.23;;;24.10;55.90;;;;;;6942118;28;20052;-78
2022/05/22 16:33:20;;;;;;;24.88;13.85;;;24.00;56.20;;;;;;6942290;28;20048;-79
2022/05/22 16:36:42;;;;;;;8.02;3.53;;;24.00;56.70;;;;;;6942426;28;20042;-76
2022/05/22 16:40:09;;;;;;;5.88;2.60;;;24.00;57.90;;;;;;6938609;28;20049;-77
2022/05/22 16:43:31;;;;;;;3.65;1.70;;;23.90;57.10;;;;;;6938901;28;20041;-77
2022/05/22 16:46:55;;;;;;;3.72;1.50;;;23.90;58.10;;;;;;6941426;28;20553;-78
2022/05/22 16:53:59;;;;;;;4.68;1.50;;;23.70;60.30;;;;;;6941452;28;20045;-79
2022/05/22 16:57:28;;;;;;;4.20;1.50;;;23.50;60.50;;;;;;6939714;28;20049;-79
2022/05/22 17:00:51;;;;;;;4.28;1.50;;;23.40;61.00;;;;;;6941263;28;20049;-79
2022/05/22 17:04:14;;;;;;;5.43;1.50;;;23.30;59.30;;;;;;6939650;28;20052;-77
2022/05/22 17:07:36;;;;;;;;;;;23.30;58.90;;;;;;6939248;28;20510;-77
2022/05/22 17:10:59;;;;;;;;;;;23.20;58.60;;;;;;6940961;28;19928;-75
2022/05/22 17:14:26;;;;;;;5.60;1.90;;;23.10;58.60;;;;;;6940518;28;19921;-76
2022/05/22 17:17:48;;;;;;;5.20;1.52;;;23.20;60.00;;;;;;6934836;28;20535;-79
2022/05/22 17:21:10;;;;;;;3.92;1.30;;;23.20;60.80;;;;;;6906997;28;20141;-76
2022/05/22 17:24:37;;;;;;;3.63;1.40;;;23.20;60.20;;;;;;6938530;28;20053;-78
2022/05/22 17:28:01;;;;;;;4.57;1.40;;;23.20;61.80;;;;;;6940973;28;20049;-75
2022/05/22 17:31:25;;;;;;;6.35;1.77;;;23.30;61.10;;;;;;6934744;28;20388;-74
2022/05/22 17:34:47;;;;;;;3.97;1.50;;;23.30;62.70;;;;;;6939657;28;20054;-75
2022/05/22 17:38:13;;;;;;;3.78;1.23;;;23.30;62.50;;;;;;6935767;28;20506;-76
2022/05/22 17:41:36;;;;;;;3.97;1.30;;;23.20;61.80;;;;;;6925732;28;20049;-75
2022/05/22 17:44:58;;;;;;;3.83;1.40;;;23.20;62.00;;;;;;6939916;28;20049;-77
2022/05/22 17:48:21;;;;;;;3.97;1.70;;;23.10;61.60;;;;;;6944678;28;20045;-78
2022/05/22 17:51:43;;;;;;;4.35;1.42;;;23.20;61.90;;;;;;6933303;28;20060;-77
2022/05/22 17:55:07;;;;;;;3.58;1.20;;;23.10;61.10;;;;;;6945752;28;20061;-77
2022/05/22 17:58:29;;;;;;;2.92;1.15;;;23.00;61.90;;;;;;6945428;28;20068;-76
2022/05/22 18:01:53;;;;;;;3.92;1.10;;;22.90;63.10;;;;;;6945720;28;20041;-78
2022/05/22 18:05:16;;;;;;;3.58;1.10;;;22.80;62.70;;;;;;6943700;28;20049;-77
2022/05/22 18:08:39;;;;;;;4.25;1.33;;;22.80;63.90;;;;;;6946602;28;20399;-76
2022/05/22 18:19:21;;;;;;;3.80;1.52;;;22.70;67.70;;;;;;6932559;28;20050;-76
2022/05/22 18:22:47;;;;;;;4.72;2.00;;;22.60;70.60;;;;;;6934894;28;20495;-76
2022/05/22 18:26:10;;;;;;;7.32;1.60;;;22.60;72.80;;;;;;6938172;28;20056;-75
2022/05/22 18:29:33;;;;;;;4.38;1.88;;;22.50;73.60;;;;;;6944036;28;20083;-78
2022/05/22 18:32:55;;;;;;;3.97;1.60;;;22.40;74.70;;;;;;6940301;28;20076;-77
2022/05/22 18:36:22;;;;;;;3.25;1.52;;;22.40;75.80;;;;;;6941200;28;20056;-76
2022/05/22 18:39:47;;;;;;;4.95;1.70;;;22.30;75.90;;;;;;6938467;28;20071;-77
2022/05/22 18:43:11;;;;;;;5.07;1.75;;;22.20;75.00;;;;;;6940875;28;20068;-78
2022/05/22 18:46:34;;;;;;;6.10;1.50;;;22.10;71.60;;;;;;6932968;28;20085;-78
2022/05/22 18:49:56;;;;;;;3.47;1.35;;;22.10;69.80;;;;;;6941818;28;20049;-76
2022/05/22 18:53:18;;;;;;;2.75;0.98;;;22.00;67.70;;;;;;6940600;28;20072;-78
2022/05/22 18:56:43;;;;;;;;;;;21.90;69.00;;;;;;6942286;28;20431;-77
2022/05/22 19:00:08;;;;;;;5.05;1.65;;;21.70;68.70;;;;;;6941578;28;19979;-78
2022/05/22 19:03:30;;;;;;;3.53;1.40;;;21.60;70.90;;;;;;6940049;28;20041;-79
2022/05/22 19:06:53;;;;;;;2.95;1.20;;;21.50;72.00;;;;;;6942581;28;20052;-79
2022/05/22 19:10:16;;;;;;;5.43;1.08;;;21.50;72.40;;;;;;6917007;28;20049;-80
2022/05/22 19:13:45;;;;;;;4.07;1.40;;;21.50;72.10;;;;;;6909654;28;20531;-77
2022/05/22 19:17:09;;;;;;;4.22;1.20;;;21.50;73.40;;;;;;6907325;28;20133;-78
2022/05/22 19:20:31;;;;;;;3.58;1.33;;;21.30;74.70;;;;;;6903929;28;20061;-78
2022/05/22 19:23:55;;;;;;;3.85;1.50;;;21.20;75.50;;;;;;6903158;28;20100;-78
2022/05/22 19:27:19;;;;;;;3.85;1.20;;;21.10;74.80;;;;;;6905989;28;20084;-79
2022/05/22 19:30:47;;;;;;;4.65;1.10;;;21.10;75.30;;;;;;6904404;28;20080;-78
2022/05/22 19:34:09;;;;;;;34.53;17.05;;;21.00;73.30;;;;;;6899207;28;20780;-79
2022/05/22 19:37:31;;;;;;;14.68;7.30;;;21.00;73.50;;;;;;6910686;28;20502;-77
2022/05/22 19:40:58;;;;;;;13.48;7.28;;;20.90;75.00;;;;;;6902111;28;20142;-78
2022/05/22 19:44:24;;;;;;;5.03;1.80;;;20.90;77.30;;;;;;6910050;28;20054;-78
2022/05/22 19:47:54;;;;;;;6.05;1.40;;;20.70;81.80;;;;;;6939109;28;20201;-78
2022/05/22 19:51:16;;;;;;;6.93;1.80;;;20.40;82.80;;;;;;6943156;28;20124;-78
2022/05/22 20:01:57;;;;;;;3.00;1.33;;;20.20;86.40;;;;;;6943163;28;20049;-78
2022/05/22 20:05:21;;;;;;;4.88;1.35;;;20.20;87.10;;;;;;6942626;28;20498;-76
2022/05/22 20:08:46;;;;;;;3.92;1.35;;;20.10;88.00;;;;;;6941354;28;20044;-76
2022/05/22 20:12:09;;;;;;;3.15;1.42;;;20.00;90.10;;;;;;6943090;28;20057;-77
2022/05/22 20:15:31;;;;;;;3.60;1.40;;;20.00;90.90;;;;;;6943227;28;20048;-77
2022/05/22 20:18:54;;;;;;;4.13;1.42;;;19.90;91.10;;;;;;6942514;28;20049;-77
2022/05/22 20:22:18;;;;;;;4.93;1.88;;;19.90;90.80;;;;;;6943521;28;20179;-78
2022/05/22 20:25:42;;;;;;;3.95;1.98;;;19.60;91.50;;;;;;6939890;28;20499;-78
2022/05/22 20:29:04;;;;;;;5.63;1.67;;;19.50;92.40;;;;;;6957974;28;20052;-77
2022/05/22 20:32:26;;;;;;;3.42;1.38;;;19.60;92.30;;;;;;6942732;28;20046;-76
2022/05/22 20:35:48;;;;;;;4.75;1.60;;;19.70;91.80;;;;;;6941266;28;20399;-77
2022/05/22 20:39:12;;;;;;;4.88;2.00;;;19.80;92.20;;;;;;6942146;28;20049;-78
2022/05/22 20:42:38;;;;;;;4.82;1.55;;;19.90;91.70;;;;;;6927875;28;20049;-77
2022/05/22 20:46:00;;;;;;;5.18;2.20;;;19.70;91.80;;;;;;6941019;28;20079;-77
2022/05/22 20:49:22;;;;;;;6.72;2.00;;;19.60;92.30;;;;;;6941048;28;20090;-77
2022/05/22 20:52:46;;;;;;;24.70;11.98;;;19.70;92.30;;;;;;6929895;28;20049;-78
2022/05/22 21:00:01;;;;;;;4.78;2.30;;;19.80;91.90;;;;;;6941451;28;20053;-77
2022/05/22 21:03:24;;;;;;;5.47;1.83;;;19.70;91.80;;;;;;6941395;28;20053;-76
2022/05/22 21:06:47;;;;;;;3.97;1.60;;;19.60;92.10;;;;;;6942122;28;20050;-79
2022/05/22 21:10:09;;;;;;;4.78;1.65;;;19.50;92.10;;;;;;6940209;28;20050;-78
2022/05/22 21:13:33;;;;;;;3.63;1.63;;;19.50;92.00;;;;;;6938798;28;20049;-78